Weather at Sultan Babullah Airport

Public forecast

Using degrees Celsius for public forecast. Weather courtesy of forecast.io.

Closest aviation weather report (METAR) to Sultan Babullah Airport

Closest report is Sam Ratulangi Airport, 153.6 nm (284.4 km) WNW.

2024/05/23 22:30 (retrieved 25 minutes ago)

WAMM 232230Z VRB02KT 9999 FEW020 25/24 Q1008 NOSIG

Closest aviation forecast (TAF) to Sultan Babullah Airport

Closest forecast is Sam Ratulangi Airport, 153.6 nm (284.4 km) WNW.

2024/05/23 18:09 (retrieved 5 hours ago)

TAF WAMM 231700Z 2318/2424 VRB02KT 9999 SCT020 BECMG 2400/2402 15010KT